Time;durP1;ratioP1;P1;durP2;ratioP2;P2;SDS_P1;SDS_P2;PMS_P1;PMS_P2;Temp;Humidity;BMP_temperature;BMP_pressure;BME280_temperature;BME280_humidity;BME280_pressure;Samples;Min_cycle;Max_cycle;Signal;HPM_P1;HPM_P2
2023/06/19 00:00:39;;;;;;;5.75;2.92;;;;;;;;;;5075351;28;20390;-54
2023/06/19 00:03:05;;;;;;;4.55;2.80;;;19.20;99.90;;;;;;5075421;28;20333;-54
2023/06/19 00:05:31;;;;;;;5.18;3.00;;;;;;;;;;5075065;28;20037;-54
2023/06/19 00:07:57;;;;;;;5.25;3.10;;;19.30;99.90;;;;;;5075089;28;20564;-54
2023/06/19 00:10:23;;;;;;;4.00;2.55;;;19.40;99.90;;;;;;5075578;28;20048;-54
2023/06/19 00:12:48;;;;;;;5.30;2.97;;;19.30;99.90;;;;;;5073299;28;20400;-54
2023/06/19 00:15:14;;;;;;;4.38;2.90;;;19.20;99.90;;;;;;5075233;28;20502;-54
2023/06/19 00:17:41;;;;;;;3.85;2.95;;;19.10;99.90;;;;;;5075150;28;20078;-54
2023/06/19 00:20:07;;;;;;;4.55;2.95;;;19.00;99.90;;;;;;5075716;28;20607;-54
2023/06/19 00:22:33;;;;;;;3.83;2.85;;;18.80;99.90;;;;;;5075184;28;20051;-54
2023/06/19 00:24:59;;;;;;;5.35;2.80;;;18.70;99.90;;;;;;5074741;28;20392;-54
2023/06/19 00:27:26;;;;;;;5.20;2.70;;;;;;;;;;5075005;28;20027;-54
2023/06/19 00:29:52;;;;;;;4.53;2.53;;;;;;;;;;5074915;28;20029;-54
2023/06/19 00:32:18;;;;;;;4.05;2.78;;;;;;;;;;5074830;28;20058;-54
2023/06/19 00:34:44;;;;;;;4.32;2.85;;;;;;;;;;5074628;28;20029;-54
2023/06/19 00:37:13;;;;;;;4.22;3.22;;;18.20;99.90;;;;;;5074981;28;20025;-54
2023/06/19 00:39:40;;;;;;;5.03;3.10;;;18.20;99.90;;;;;;5074676;28;20028;-54
2023/06/19 00:42:06;;;;;;;5.30;2.42;;;;;;;;;;5074737;28;20483;-54
2023/06/19 00:44:32;;;;;;;4.40;2.92;;;;;;;;;;5074526;28;20032;-54
2023/06/19 00:47:00;;;;;;;3.38;2.40;;;18.00;99.90;;;;;;5074655;28;20047;-55
2023/06/19 00:49:27;;;;;;;5.05;3.10;;;18.10;99.90;;;;;;5074385;28;20029;-54
2023/06/19 00:51:53;;;;;;;3.38;2.33;;;18.10;99.90;;;;;;5074661;28;20448;-54
2023/06/19 00:54:20;;;;;;;3.90;2.63;;;18.10;99.90;;;;;;5074394;28;20127;-53
2023/06/19 00:56:45;;;;;;;6.13;2.75;;;18.00;99.90;;;;;;5074553;28;20111;-55
2023/06/19 00:59:16;;;;;;;5.82;2.50;;;17.90;99.90;;;;;;5072717;28;20123;-55
2023/06/19 01:01:43;;;;;;;4.93;2.75;;;;;;;;;;5074252;28;20036;-55
2023/06/19 01:04:09;;;;;;;4.32;3.10;;;;;;;;;;5074035;28;20032;-54
2023/06/19 01:06:42;;;;;;;3.53;2.70;;;;;;;;;;5074007;28;20036;-54
2023/06/19 01:09:11;;;;;;;4.45;2.60;;;;;;;;;;5074316;28;20457;-54
2023/06/19 01:11:57;;;;;;;4.47;2.85;;;;;;;;;;5074018;28;20028;-54
2023/06/19 01:14:28;;;;;;;4.95;2.95;;;;;;;;;;5055497;28;20043;-54
2023/06/19 01:16:55;;;;;;;5.18;2.67;;;;;;;;;;5072865;28;20419;-54
2023/06/19 01:19:21;;;;;;;3.95;2.60;;;;;;;;;;5074079;28;20475;-54
2023/06/19 01:21:48;;;;;;;4.25;2.55;;;;;;;;;;5074220;28;20021;-54
2023/06/19 01:24:14;;;;;;;4.38;2.88;;;;;;;;;;5055446;28;20029;-54
2023/06/19 01:26:41;;;;;;;4.28;2.88;;;;;;;;;;5051847;28;20056;-54
2023/06/19 01:29:08;;;;;;;4.05;2.88;;;;;;;;;;5053674;28;20033;-54
2023/06/19 01:31:37;;;;;;;5.57;2.95;;;;;;;;;;5053659;28;20032;-54
2023/06/19 01:34:04;;;;;;;3.83;3.05;;;;;;;;;;5054118;28;20364;-54
2023/06/19 01:36:31;;;;;;;3.53;2.63;;;;;;;;;;5053608;28;20380;-54
2023/06/19 01:38:58;;;;;;;3.22;2.50;;;;;;;;;;5053503;28;20060;-54
2023/06/19 01:41:25;;;;;;;5.50;3.65;;;;;;;;;;5053281;28;20032;-54
2023/06/19 01:43:51;;;;;;;4.03;2.40;;;;;;;;;;5053325;28;20025;-54
2023/06/19 01:46:17;;;;;;;4.60;2.95;;;;;;;;;;5053323;28;20040;-54
2023/06/19 01:48:43;;;;;;;5.13;3.08;;;;;;;;;;5053400;28;20108;-54
2023/06/19 01:51:10;;;;;;;4.50;2.63;;;;;;;;;;5034888;28;20114;-54
2023/06/19 01:53:36;;;;;;;4.82;2.88;;;;;;;;;;5053187;28;20033;-54
2023/06/19 01:56:02;;;;;;;5.60;2.65;;;;;;;;;;5053194;28;20033;-54
2023/06/19 01:58:28;;;;;;;4.07;2.72;;;;;;;;;;5053569;28;20028;-54
2023/06/19 02:00:55;;;;;;;6.32;3.20;;;;;;;;;;5034635;28;20480;-54
2023/06/19 02:03:21;;;;;;;5.88;3.00;;;;;;;;;;5053126;28;20472;-54
2023/06/19 02:05:47;;;;;;;4.28;2.70;;;;;;;;;;5053360;28;20063;-54
2023/06/19 02:08:13;;;;;;;6.30;2.80;;;;;;;;;;5053465;28;20067;-54
2023/06/19 02:10:40;;;;;;;5.00;3.10;;;;;;;;;;5053412;28;20464;-54
2023/06/19 02:13:06;;;;;;;3.60;2.78;;;;;;;;;;5052855;28;20025;-54
2023/06/19 02:15:32;;;;;;;4.25;2.58;;;;;;;;;;5053092;28;20131;-54
2023/06/19 02:17:58;;;;;;;4.18;2.83;;;;;;;;;;5053185;28;20025;-54
2023/06/19 02:20:25;;;;;;;4.85;3.35;;;;;;;;;;5052823;28;20074;-54
2023/06/19 02:22:51;;;;;;;6.65;3.45;;;;;;;;;;5053120;28;20064;-54
2023/06/19 02:25:18;;;;;;;3.67;2.78;;;;;;;;;;5052971;28;20078;-54
2023/06/19 02:27:44;;;;;;;4.88;2.42;;;;;;;;;;5052965;28;20496;-54
2023/06/19 02:30:10;;;;;;;4.55;2.70;;;;;;;;;;5052829;28;20029;-54
2023/06/19 02:32:36;;;;;;;4.38;3.05;;;;;;;;;;5052855;28;20065;-54
2023/06/19 02:35:04;;;;;;;3.72;2.55;;;17.30;99.90;;;;;;5053264;28;20032;-54
2023/06/19 02:37:30;;;;;;;3.72;2.70;;;17.10;99.90;;;;;;5033336;28;20041;-54
2023/06/19 02:39:56;;;;;;;4.32;2.95;;;17.00;99.90;;;;;;5033836;28;20091;-54
2023/06/19 02:42:22;;;;;;;6.28;2.65;;;17.00;99.90;;;;;;5052434;28;20063;-55
2023/06/19 02:44:47;;;;;;;3.42;2.50;;;17.00;99.90;;;;;;5052675;28;20025;-54
2023/06/19 02:47:13;;;;;;;3.67;2.70;;;16.90;99.90;;;;;;5052202;28;20036;-54
2023/06/19 02:49:39;;;;;;;6.78;3.08;;;16.80;99.90;;;;;;5001236;28;20064;-54
2023/06/19 02:52:05;;;;;;;4.18;2.78;;;16.80;99.90;;;;;;5052671;28;20051;-54
2023/06/19 02:54:30;;;;;;;5.93;2.58;;;16.80;99.90;;;;;;5052640;28;20036;-54
2023/06/19 02:56:56;;;;;;;4.63;3.20;;;16.90;99.90;;;;;;5056936;28;20021;-54
2023/06/19 02:59:22;;;;;;;4.30;2.65;;;17.00;99.90;;;;;;5072807;28;20058;-54
2023/06/19 03:01:48;;;;;;;3.85;2.78;;;17.20;99.90;;;;;;5061937;28;20064;-54
2023/06/19 03:04:13;;;;;;;4.57;2.85;;;17.10;99.90;;;;;;5052240;28;20084;-54
2023/06/19 03:06:39;;;;;;;4.07;2.92;;;17.10;99.90;;;;;;5052470;28;20150;-54
2023/06/19 03:09:11;;;;;;;5.43;2.83;;;17.10;99.90;;;;;;5033956;28;20046;-54
2023/06/19 03:11:39;;;;;;;4.80;2.65;;;17.10;99.90;;;;;;5049282;28;20033;-54
2023/06/19 03:14:07;;;;;;;6.00;2.72;;;17.20;99.90;;;;;;5052546;28;20033;-54
2023/06/19 03:16:33;;;;;;;4.30;2.75;;;17.20;99.90;;;;;;5037656;28;20033;-54
2023/06/19 03:18:59;;;;;;;4.10;2.88;;;17.20;99.90;;;;;;5032651;28;20037;-54
2023/06/19 03:21:26;;;;;;;5.93;3.08;;;17.20;99.90;;;;;;5032680;28;20036;-54
2023/06/19 03:23:52;;;;;;;4.00;2.45;;;17.20;99.90;;;;;;5032614;28;20137;-54
2023/06/19 03:26:21;;;;;;;4.30;2.75;;;17.30;99.90;;;;;;5036242;28;20124;-54
2023/06/19 03:28:47;;;;;;;6.03;2.90;;;17.10;99.90;;;;;;5036021;28;20362;-54
2023/06/19 03:31:13;;;;;;;4.57;2.80;;;17.00;99.90;;;;;;5036090;28;20037;-54
2023/06/19 03:33:39;;;;;;;4.10;2.80;;;16.90;99.90;;;;;;5036349;28;20038;-54
2023/06/19 03:36:05;;;;;;;4.13;2.58;;;17.00;99.90;;;;;;5036128;28;20029;-54
2023/06/19 03:38:31;;;;;;;6.35;2.85;;;17.10;99.90;;;;;;5036088;28;20087;-54
2023/06/19 03:40:57;;;;;;;6.03;3.05;;;17.10;99.90;;;;;;5035844;28;20025;-54
2023/06/19 03:43:22;;;;;;;3.63;2.53;;;17.20;99.90;;;;;;5036289;28;20037;-54
2023/06/19 03:45:48;;;;;;;4.32;2.70;;;17.40;99.90;;;;;;5035638;28;20122;-54
2023/06/19 03:48:17;;;;;;;5.43;2.65;;;17.60;99.90;;;;;;5035962;28;20109;-54
2023/06/19 03:50:43;;;;;;;4.97;2.85;;;17.60;99.90;;;;;;5035548;28;20025;-54
2023/06/19 03:53:08;;;;;;;4.63;2.95;;;17.60;99.90;;;;;;5036118;28;20061;-55
2023/06/19 03:55:34;;;;;;;5.15;2.88;;;17.60;99.90;;;;;;5035552;28;20465;-56
2023/06/19 03:58:00;;;;;;;4.43;2.90;;;17.70;99.90;;;;;;5036561;28;20026;-56
2023/06/19 04:00:25;;;;;;;5.88;2.67;;;17.50;99.90;;;;;;5035891;28;20136;-56
2023/06/19 04:02:51;;;;;;;4.35;2.70;;;17.50;99.90;;;;;;5035441;28;20026;-53
2023/06/19 04:05:17;;;;;;;3.67;2.60;;;17.50;99.90;;;;;;5035355;28;20152;-55
2023/06/19 04:07:43;;;;;;;4.65;2.15;;;17.50;99.90;;;;;;5035250;28;20056;-53
2023/06/19 04:10:11;;;;;;;3.40;2.67;;;17.50;99.90;;;;;;5035683;28;20025;-53
2023/06/19 04:12:37;;;;;;;3.88;2.70;;;17.40;99.90;;;;;;5033480;28;20489;-53
2023/06/19 04:15:03;;;;;;;4.57;2.88;;;17.40;99.90;;;;;;5035141;28;20033;-53
2023/06/19 04:17:29;;;;;;;4.80;2.85;;;17.60;99.90;;;;;;5035157;28;20477;-53
2023/06/19 04:19:55;;;;;;;4.20;2.70;;;17.60;99.90;;;;;;5035079;28;20032;-53
2023/06/19 04:22:20;;;;;;;3.92;2.83;;;17.60;99.90;;;;;;5035247;28;20025;-53
2023/06/19 04:24:46;;;;;;;3.95;2.78;;;17.60;99.90;;;;;;5034900;28;20087;-53
2023/06/19 04:27:12;;;;;;;4.35;2.90;;;17.50;99.90;;;;;;5035328;28;20026;-53
2023/06/19 04:29:38;;;;;;;4.75;3.00;;;17.60;99.90;;;;;;5035124;28;20025;-53
2023/06/19 04:32:11;;;;;;;4.97;3.25;;;17.70;99.90;;;;;;5034981;28;20083;-53
2023/06/19 04:34:38;;;;;;;4.43;2.88;;;17.80;99.90;;;;;;5034494;28;20040;-53
2023/06/19 04:37:04;;;;;;;6.03;3.20;;;18.00;99.90;;;;;;5034699;28;20033;-53
2023/06/19 04:39:30;;;;;;;6.18;2.45;;;17.90;99.90;;;;;;5016244;28;20590;-53
2023/06/19 04:41:56;;;;;;;4.40;2.53;;;18.10;99.90;;;;;;5034748;28;20029;-53
2023/06/19 04:44:21;;;;;;;4.90;2.67;;;18.40;99.90;;;;;;5034688;28;20048;-53
2023/06/19 04:46:48;;;;;;;4.35;2.75;;;18.30;99.90;;;;;;5040263;28;20040;-53
2023/06/19 04:49:13;;;;;;;5.65;3.10;;;18.50;99.90;;;;;;5074689;28;20067;-53
2023/06/19 04:51:41;;;;;;;3.92;2.67;;;18.70;99.90;;;;;;5056105;28;20064;-53
2023/06/19 04:54:07;;;;;;;4.22;2.95;;;19.00;99.90;;;;;;5074681;28;20029;-53
2023/06/19 04:56:33;;;;;;;6.15;3.78;;;19.40;99.90;;;;;;5074381;28;20032;-53
2023/06/19 04:58:59;;;;;;;3.70;2.97;;;19.70;99.90;;;;;;5042943;28;20029;-53
2023/06/19 05:01:30;;;;;;;4.22;3.22;;;19.90;99.90;;;;;;5071888;28;20033;-53
2023/06/19 05:03:56;;;;;;;4.47;2.97;;;20.10;99.90;;;;;;5074818;28;20036;-53
2023/06/19 05:06:25;;;;;;;5.85;2.90;;;20.30;99.90;;;;;;5074294;28;20476;-53
2023/06/19 05:08:52;;;;;;;7.15;3.15;;;20.30;99.90;;;;;;5073936;28;20045;-53
2023/06/19 05:11:18;;;;;;;5.40;3.03;;;20.40;99.90;;;;;;5074407;28;20028;-55
2023/06/19 05:13:44;;;;;;;4.95;2.88;;;20.60;99.90;;;;;;5072723;28;20031;-54
2023/06/19 05:16:11;;;;;;;5.53;3.03;;;20.60;99.90;;;;;;5074268;28;20357;-54
2023/06/19 05:18:37;;;;;;;3.88;2.67;;;;;;;;;;5072731;28;20094;-54
2023/06/19 05:21:03;;;;;;;5.50;3.42;;;;;;;;;;5073900;28;20021;-54
2023/06/19 05:23:29;;;;;;;4.38;3.35;;;;;;;;;;5072581;28;20111;-54
2023/06/19 05:25:55;;;;;;;4.22;2.92;;;;;;;;;;5073711;28;20128;-53
2023/06/19 05:28:21;;;;;;;4.00;2.50;;;;;;;;;;5073695;28;20024;-54
2023/06/19 05:30:49;;;;;;;5.13;3.28;;;;;;;;;;5074032;28;20025;-54
2023/06/19 05:33:17;;;;;;;5.07;3.47;;;;;;;;;;5073547;28;20094;-54
2023/06/19 05:35:43;;;;;;;3.88;3.05;;;;;;;;;;5073544;28;20345;-53
2023/06/19 05:38:09;;;;;;;4.43;2.78;;;22.00;99.90;;;;;;5073819;28;20059;-56
2023/06/19 05:40:35;;;;;;;6.75;4.13;;;21.90;99.90;;;;;;5073445;28;20047;-51
2023/06/19 05:43:01;;;;;;;3.90;3.35;;;21.80;99.90;;;;;;5073480;28;20111;-52
2023/06/19 05:45:27;;;;;;;4.25;3.15;;;;;;;;;;5073600;28;20107;-51
2023/06/19 05:47:53;;;;;;;4.90;3.45;;;21.90;99.90;;;;;;5072868;28;20033;-52
2023/06/19 05:50:19;;;;;;;5.20;2.97;;;22.10;99.90;;;;;;5073168;28;20056;-51
2023/06/19 05:52:45;;;;;;;5.13;2.88;;;;;;;;;;5073305;28;20028;-51
2023/06/19 05:55:12;;;;;;;4.75;3.00;;;;;;;;;;5073291;28;20040;-51
2023/06/19 05:57:37;;;;;;;5.25;2.75;;;22.50;99.90;;;;;;5073261;28;20028;-51
2023/06/19 06:00:05;;;;;;;3.50;2.40;;;;;;;;;;5073473;28;20035;-51
2023/06/19 06:02:31;;;;;;;4.80;2.85;;;;;;;;;;5073491;28;20028;-51
2023/06/19 06:04:57;;;;;;;5.10;3.03;;;;;;;;;;5073876;28;20060;-51
2023/06/19 06:07:24;;;;;;;5.70;2.95;;;;;;;;;;5072950;28;20052;-51
2023/06/19 06:09:50;;;;;;;3.58;2.85;;;;;;;;;;5073653;28;20031;-51
2023/06/19 06:12:16;;;;;;;7.80;2.95;;;23.20;99.90;;;;;;5073401;28;20048;-51
2023/06/19 06:14:41;;;;;;;4.03;2.90;;;23.20;99.90;;;;;;5057108;28;20465;-51
2023/06/19 06:17:07;;;;;;;4.85;3.00;;;;;;;;;;5049275;28;20078;-52
2023/06/19 06:19:36;;;;;;;4.15;2.95;;;;;;;;;;5034352;28;20053;-51
2023/06/19 06:22:02;;;;;;;4.20;2.97;;;23.40;99.90;;;;;;5051402;28;20044;-51
2023/06/19 06:24:28;;;;;;;4.93;2.95;;;23.60;99.90;;;;;;5051130;28;20423;-51
2023/06/19 06:26:54;;;;;;;4.65;3.20;;;23.70;99.90;;;;;;5053260;28;20112;-52
2023/06/19 06:29:20;;;;;;;5.53;3.40;;;;;;;;;;5052336;28;20021;-52
2023/06/19 06:31:47;;;;;;;9.52;3.35;;;24.00;99.90;;;;;;5053047;28;20095;-51
2023/06/19 06:34:13;;;;;;;5.40;3.97;;;;;;;;;;5052768;28;20472;-51
2023/06/19 06:36:39;;;;;;;6.32;3.85;;;;;;;;;;5052104;28;20021;-57
2023/06/19 06:39:05;;;;;;;7.28;4.00;;;;;;;;;;5063277;28;20036;-55
2023/06/19 06:41:31;;;;;;;5.90;3.42;;;24.40;99.90;;;;;;5072692;28;20098;-50
2023/06/19 06:43:57;;;;;;;5.85;3.13;;;24.30;99.90;;;;;;5072633;28;20471;-51
2023/06/19 06:46:23;;;;;;;6.15;3.92;;;24.60;99.90;;;;;;5052312;28;20045;-50
2023/06/19 06:48:49;;;;;;;6.50;4.20;;;24.60;99.90;;;;;;5035359;28;20033;-49
2023/06/19 06:51:15;;;;;;;9.05;4.00;;;24.50;99.90;;;;;;5039853;28;20080;-51
2023/06/19 06:53:41;;;;;;;5.93;3.80;;;24.50;99.90;;;;;;5052973;28;20028;-52
2023/06/19 06:56:07;;;;;;;9.98;3.92;;;;;;;;;;5047985;28;20029;-52
2023/06/19 06:58:33;;;;;;;7.05;4.25;;;24.90;99.90;;;;;;4995918;28;20036;-51
2023/06/19 07:00:59;;;;;;;6.35;4.25;;;;;;;;;;5045470;28;20520;-53
2023/06/19 07:03:24;;;;;;;5.32;4.03;;;25.30;99.90;;;;;;5045690;28;20049;-52
2023/06/19 07:05:50;;;;;;;6.20;4.07;;;25.30;99.90;;;;;;5045437;28;20122;-52
2023/06/19 07:08:16;;;;;;;7.28;3.85;;;25.30;99.90;;;;;;5009021;28;20045;-56
2023/06/19 07:10:42;;;;;;;6.32;4.00;;;25.40;99.90;;;;;;5028946;28;20045;-51
2023/06/19 07:13:07;;;;;;;6.35;4.10;;;25.30;99.90;;;;;;5053865;28;20021;-52
2023/06/19 07:15:33;;;;;;;9.20;4.40;;;25.40;99.90;;;;;;5052049;28;20432;-52
2023/06/19 07:17:59;;;;;;;7.50;4.70;;;25.60;99.90;;;;;;5045810;28;20040;-54
2023/06/19 07:20:24;;;;;;;6.82;4.10;;;25.70;99.90;;;;;;5046186;28;20069;-53
2023/06/19 07:22:52;;;;;;;6.22;4.10;;;25.80;99.90;;;;;;5044496;28;20591;-53
2023/06/19 07:25:18;;;;;;;6.22;3.83;;;25.90;99.90;;;;;;5045966;28;20033;-54
2023/06/19 07:27:44;;;;;;;5.60;3.60;;;25.90;99.90;;;;;;5007691;28;20401;-53
2023/06/19 07:30:13;;;;;;;5.95;3.85;;;;;;;;;;5041900;28;20045;-51
2023/06/19 07:32:39;;;;;;;5.03;3.55;;;;;;;;;;5035899;28;20044;-52
2023/06/19 07:35:07;;;;;;;6.07;3.58;;;;;;;;;;5001496;28;20042;-53
2023/06/19 07:37:33;;;;;;;4.43;3.50;;;;;;;;;;5056082;28;20047;-53
2023/06/19 07:39:59;;;;;;;5.35;4.25;;;;;;;;;;5055674;28;20033;-53
2023/06/19 07:42:26;;;;;;;5.90;3.90;;;;;;;;;;5055799;28;20060;-53
2023/06/19 07:44:52;;;;;;;5.30;3.65;;;;;;;;;;5056039;28;20475;-53
2023/06/19 07:47:20;;;;;;;4.93;3.70;;;;;;;;;;5056421;28;20039;-53
2023/06/19 07:49:46;;;;;;;4.88;3.60;;;;;;;;;;5055722;28;20107;-52
2023/06/19 07:52:13;;;;;;;5.95;3.75;;;27.70;99.90;;;;;;5056119;28;20032;-50
2023/06/19 07:54:54;;;;;;;6.18;3.42;;;27.80;99.90;;;;;;5055445;28;20029;-52
2023/06/19 07:57:21;;;;;;;5.93;3.50;;;27.70;99.90;;;;;;5055730;28;20037;-52
2023/06/19 07:59:51;;;;;;;5.93;3.88;;;27.80;99.90;;;;;;5055433;28;20144;-53
2023/06/19 08:02:17;;;;;;;5.07;3.60;;;28.10;99.90;;;;;;5037064;28;20041;-51
2023/06/19 08:04:43;;;;;;;4.57;3.38;;;28.30;99.90;;;;;;5055477;28;20032;-53
2023/06/19 08:07:09;;;;;;;5.88;3.50;;;28.10;99.90;;;;;;5055037;28;20044;-52
2023/06/19 08:09:35;;;;;;;3.95;3.03;;;28.30;99.90;;;;;;5054653;28;20030;-52
2023/06/19 08:12:01;;;;;;;4.47;3.60;;;28.20;99.90;;;;;;5055227;28;20138;-53
2023/06/19 08:14:27;;;;;;;9.05;3.42;;;28.40;99.90;;;;;;5055396;28;20033;-53
2023/06/19 08:16:53;;;;;;;7.10;3.67;;;;;;;;;;5054807;28;20047;-51
2023/06/19 08:19:19;;;;;;;6.45;3.20;;;28.90;99.90;;;;;;5055120;28;20094;-52
2023/06/19 08:21:45;;;;;;;5.65;3.42;;;29.10;99.90;;;;;;5054849;28;20025;-53
2023/06/19 08:24:11;;;;;;;7.90;3.55;;;29.10;99.90;;;;;;5055183;28;20052;-52
2023/06/19 08:26:36;;;;;;;5.35;3.63;;;29.20;99.90;;;;;;5054633;28;20033;-53
2023/06/19 08:29:03;;;;;;;5.03;3.63;;;29.10;99.90;;;;;;5054937;28;20029;-53
2023/06/19 08:31:29;;;;;;;4.70;3.60;;;;;;;;;;5054819;28;20037;-51
2023/06/19 08:33:55;;;;;;;4.15;3.20;;;29.30;99.90;;;;;;5052972;28;20403;-53
2023/06/19 08:36:21;;;;;;;6.43;3.45;;;;;;;;;;5054932;28;20033;-52
2023/06/19 08:38:49;;;;;;;4.35;3.28;;;29.60;99.90;;;;;;5054861;28;20353;-53
2023/06/19 08:41:15;;;;;;;4.05;3.25;;;;;;;;;;5036116;28;20441;-53
2023/06/19 08:43:42;;;;;;;4.00;3.20;;;30.10;99.90;;;;;;5054379;28;20056;-53
2023/06/19 08:46:12;;;;;;;7.95;3.58;;;;;;;;;;5054960;28;20098;-51
2023/06/19 08:48:38;;;;;;;5.13;3.75;;;30.30;99.90;;;;;;5048448;28;20057;-53
2023/06/19 08:51:05;;;;;;;6.07;3.20;;;30.50;99.90;;;;;;5046282;28;20037;-52
2023/06/19 08:53:35;;;;;;;5.65;3.05;;;30.50;99.90;;;;;;5046212;28;20119;-51
2023/06/19 08:56:03;;;;;;;3.80;3.10;;;30.00;99.90;;;;;;5042577;28;20469;-53
2023/06/19 08:58:29;;;;;;;6.05;3.10;;;30.30;99.90;;;;;;5046927;28;20025;-52
2023/06/19 09:00:54;;;;;;;3.47;2.60;;;30.50;99.90;;;;;;5043951;28;20052;-53
2023/06/19 09:03:21;;;;;;;4.93;3.17;;;30.50;99.90;;;;;;5043531;28;20033;-52
2023/06/19 09:05:50;;;;;;;6.88;3.40;;;30.70;99.90;;;;;;5044015;28;20061;-54
2023/06/19 09:08:20;;;;;;;6.53;3.75;;;30.80;99.90;;;;;;5052902;28;20068;-53
2023/06/19 09:11:05;;;;;;;3.88;2.92;;;31.00;99.90;;;;;;5039571;28;20041;-53
2023/06/19 09:13:32;;;;;;;4.68;2.88;;;31.20;99.90;;;;;;5034326;28;20116;-52
2023/06/19 09:16:05;;;;;;;5.72;2.63;;;30.90;99.90;;;;;;5033986;28;20536;-52
2023/06/19 09:18:41;;;;;;;3.67;2.67;;;31.30;99.90;;;;;;5034181;28;20040;-52
2023/06/19 09:21:15;;;;;;;4.75;2.25;;;30.50;99.30;;;;;;5034849;28;20144;-53
2023/06/19 09:23:42;;;;;;;5.07;3.20;;;29.90;98.50;;;;;;5033419;28;20492;-52
2023/06/19 09:26:07;;;;;;;4.60;2.78;;;30.30;99.30;;;;;;5033755;28;20052;-52
2023/06/19 09:28:33;;;;;;;5.70;2.70;;;30.70;98.60;;;;;;5043133;28;20024;-52
2023/06/19 09:31:01;;;;;;;4.53;2.63;;;31.00;98.40;;;;;;5053922;28;20029;-53
2023/06/19 09:33:29;;;;;;;7.55;4.13;;;31.20;99.10;;;;;;5053567;28;20047;-53
2023/06/19 09:35:55;;;;;;;4.50;3.00;;;;;;;;;;5054209;28;20033;-51
2023/06/19 09:38:25;;;;;;;3.92;2.80;;;31.40;99.90;;;;;;5053895;28;20025;-52
2023/06/19 09:40:52;;;;;;;5.10;2.95;;;31.10;99.90;;;;;;5053781;28;20068;-54
2023/06/19 09:43:46;;;;;;;3.45;2.92;;;31.30;99.90;;;;;;5054090;28;20037;-53
2023/06/19 09:46:14;;;;;;;4.43;3.00;;;31.50;99.90;;;;;;5052025;28;20064;-53
2023/06/19 09:48:46;;;;;;;4.22;3.05;;;31.40;99.90;;;;;;5042855;28;20025;-52
2023/06/19 09:51:23;;;;;;;;;;;31.60;99.90;;;;;;5042919;28;20516;-52
2023/06/19 09:53:50;;;;;;;3.00;2.60;;;32.60;98.20;;;;;;5041023;28;19909;-53
2023/06/19 09:56:21;;;;;;;3.97;2.88;;;32.00;98.40;;;;;;5041143;28;20033;-53
2023/06/19 09:58:49;;;;;;;4.60;2.83;;;31.90;97.60;;;;;;5043372;28;20078;-53
2023/06/19 10:01:18;;;;;;;3.05;2.40;;;31.90;96.30;;;;;;5044332;28;20033;-51
2023/06/19 10:03:44;;;;;;;3.42;2.53;;;32.00;97.50;;;;;;5002909;28;20501;-54
2023/06/19 10:06:15;;;;;;;4.45;3.03;;;31.70;96.10;;;;;;5020303;28;20060;-53
2023/06/19 10:08:42;;;;;;;;;;;31.80;96.20;;;;;;5017793;28;20049;-52
2023/06/19 10:11:08;;;;;;;5.03;2.90;;;31.40;95.50;;;;;;5017492;28;20415;-53
2023/06/19 10:13:38;;;;;;;4.05;2.90;;;31.30;95.90;;;;;;5011294;28;20065;-52
2023/06/19 10:16:05;;;;;;;4.00;2.60;;;32.00;96.70;;;;;;5010932;28;20731;-53
2023/06/19 10:18:32;;;;;;;3.67;2.90;;;32.50;96.60;;;;;;4994665;28;20163;-54
2023/06/19 10:20:58;;;;;;;3.63;2.65;;;32.60;95.00;;;;;;5011524;28;20101;-51
2023/06/19 10:23:26;;;;;;;3.05;2.00;;;32.10;94.70;;;;;;5011259;28;20046;-52
2023/06/19 10:25:54;;;;;;;3.70;2.67;;;31.80;93.60;;;;;;5011020;28;20085;-53
2023/06/19 10:28:28;;;;;;;4.47;3.03;;;32.10;93.40;;;;;;4994654;28;20049;-53
2023/06/19 10:31:00;;;;;;;4.07;3.15;;;32.50;94.60;;;;;;5011361;28;20041;-53
2023/06/19 10:33:30;;;;;;;3.22;2.65;;;;;;;;;;5012511;28;20033;-53
2023/06/19 10:35:56;;;;;;;3.35;2.78;;;;;;;;;;5036996;28;20413;-53
2023/06/19 10:38:22;;;;;;;3.17;2.65;;;;;;;;;;5037033;28;20457;-54
2023/06/19 10:40:48;;;;;;;3.20;2.50;;;;;;;;;;5037247;28;20108;-52
2023/06/19 10:43:27;;;;;;;4.38;3.10;;;;;;;;;;5037147;28;20124;-54
2023/06/19 10:45:53;;;;;;;4.20;3.20;;;;;;;;;;5037070;28;20128;-54
2023/06/19 10:48:21;;;;;;;5.40;2.80;;;;;;;;;;5036887;28;20025;-52
2023/06/19 10:50:48;;;;;;;3.75;2.45;;;33.90;91.60;;;;;;5037051;28;20033;-52
2023/06/19 10:53:26;;;;;;;6.05;3.03;;;34.00;91.90;;;;;;5036851;28;20061;-51
2023/06/19 10:56:00;;;;;;;2.85;2.28;;;34.00;91.90;;;;;;5036666;28;20112;-53
2023/06/19 10:58:26;;;;;;;3.67;2.70;;;33.50;91.70;;;;;;5036702;28;20109;-53
2023/06/19 11:00:52;;;;;;;4.15;2.97;;;33.80;91.00;;;;;;5036796;28;20496;-54
2023/06/19 11:03:19;;;;;;;4.40;2.85;;;;;;;;;;5036743;28;20033;-53
2023/06/19 11:05:46;;;;;;;4.47;3.00;;;;;;;;;;5034822;28;20068;-53
2023/06/19 11:08:20;;;;;;;2.90;2.33;;;33.40;90.00;;;;;;5036131;28;20417;-52
2023/06/19 11:10:46;;;;;;;2.40;2.10;;;32.80;90.60;;;;;;5034557;28;20038;-52
2023/06/19 11:13:20;;;;;;;3.90;2.67;;;32.50;90.90;;;;;;5034825;28;20046;-52
2023/06/19 11:15:47;;;;;;;4.15;2.53;;;31.90;90.50;;;;;;5036794;28;20116;-53
2023/06/19 11:18:15;;;;;;;3.90;2.97;;;32.30;91.30;;;;;;5037104;28;20036;-54
2023/06/19 11:20:50;;;;;;;3.85;2.50;;;32.90;90.80;;;;;;5036346;28;20036;-53
2023/06/19 11:23:17;;;;;;;5.22;2.58;;;;;;;;;;5036192;28;20120;-53
2023/06/19 11:25:43;;;;;;;3.80;2.38;;;33.70;90.90;;;;;;5034151;28;20053;-53
2023/06/19 11:28:17;;;;;;;3.50;2.42;;;33.60;90.50;;;;;;5036082;28;20045;-54
2023/06/19 11:30:44;;;;;;;3.83;2.97;;;33.90;90.10;;;;;;5036118;28;20084;-54
2023/06/19 11:33:23;;;;;;;3.15;2.47;;;;;;;;;;5034376;28;20037;-51
2023/06/19 11:35:50;;;;;;;3.75;2.70;;;;;;;;;;5036058;28;20434;-54
2023/06/19 11:38:17;;;;;;;3.85;2.50;;;;;;;;;;5036133;28;20041;-52
2023/06/19 11:40:45;;;;;;;3.50;2.97;;;;;;;;;;5036058;28;20037;-53
2023/06/19 11:43:11;;;;;;;4.07;2.50;;;;;;;;;;5036448;28;20186;-53
2023/06/19 11:45:51;;;;;;;3.53;2.67;;;;;;;;;;5034942;28;20508;-52
2023/06/19 11:48:27;;;;;;;4.72;2.63;;;;;;;;;;5035752;28;20037;-53
2023/06/19 11:50:53;;;;;;;4.20;2.55;;;;;;;;;;5035761;28;20041;-53
2023/06/19 11:53:20;;;;;;;4.78;2.70;;;;;;;;;;5035827;28;20030;-52
2023/06/19 11:55:47;;;;;;;6.30;2.80;;;;;;;;;;5033893;28;20128;-52
2023/06/19 11:58:15;;;;;;;3.35;2.50;;;;;;;;;;5035663;28;20083;-53
2023/06/19 12:00:41;;;;;;;3.20;2.60;;;;;;;;;;5035753;28;20041;-52
2023/06/19 12:03:08;;;;;;;3.50;3.10;;;;;;;;;;5035692;28;20511;-53
2023/06/19 12:05:34;;;;;;;3.65;2.60;;;;;;;;;;5035826;28;20124;-51
2023/06/19 12:08:02;;;;;;;4.43;2.97;;;;;;;;;;5035759;28;20049;-54
2023/06/19 12:10:28;;;;;;;3.03;2.28;;;;;;;;;;5017120;28;20128;-52
2023/06/19 12:12:54;;;;;;;3.28;2.58;;;;;;;;;;5035477;28;20033;-51
2023/06/19 12:15:21;;;;;;;4.38;2.33;;;;;;;;;;5035348;28;20075;-54
2023/06/19 12:17:47;;;;;;;3.85;2.70;;;;;;;;;;5033017;28;20049;-51
2023/06/19 12:20:16;;;;;;;2.67;2.17;;;;;;;;;;5033111;28;20385;-52
2023/06/19 12:22:42;;;;;;;3.17;2.35;;;;;;;;;;5032872;28;20512;-52
2023/06/19 12:25:09;;;;;;;4.07;2.80;;;;;;;;;;5032947;28;20069;-53
2023/06/19 12:27:35;;;;;;;4.25;2.70;;;;;;;;;;5032574;28;20536;-52
2023/06/19 12:30:02;;;;;;;4.10;2.17;;;;;;;;;;5016167;28;20048;-53
2023/06/19 12:32:28;;;;;;;3.58;2.47;;;;;;;;;;5032846;28;20045;-53
2023/06/19 12:34:54;;;;;;;4.32;2.90;;;;;;;;;;4999992;28;20425;-54
2023/06/19 12:37:24;;;;;;;3.80;2.45;;;;;;;;;;5032706;28;20033;-53
2023/06/19 12:39:52;;;;;;;3.97;2.50;;;34.60;79.40;;;;;;5032467;28;20111;-53
2023/06/19 12:42:18;;;;;;;4.18;2.90;;;34.40;79.80;;;;;;5032790;28;20218;-52
2023/06/19 12:44:44;;;;;;;3.78;2.60;;;34.80;83.60;;;;;;5032889;28;20121;-53
2023/06/19 12:47:10;;;;;;;3.85;2.33;;;34.80;80.80;;;;;;5032612;28;20490;-54
2023/06/19 12:49:36;;;;;;;3.38;2.40;;;34.20;81.00;;;;;;5034370;28;20572;-53
2023/06/19 12:52:02;;;;;;;3.72;2.70;;;35.00;83.60;;;;;;5034553;28;20061;-53
2023/06/19 12:54:28;;;;;;;3.45;2.40;;;35.50;83.80;;;;;;5034962;28;20021;-54
2023/06/19 12:56:54;;;;;;;2.78;2.22;;;35.80;83.90;;;;;;5034611;28;20489;-52
2023/06/19 12:59:20;;;;;;;4.10;2.75;;;36.00;84.30;;;;;;5034203;28;20037;-52
2023/06/19 13:01:46;;;;;;;3.00;2.35;;;36.00;83.90;;;;;;5034236;28;20615;-52
2023/06/19 13:04:12;;;;;;;3.65;2.60;;;36.30;82.30;;;;;;5034337;28;20104;-51
2023/06/19 13:06:38;;;;;;;3.20;2.40;;;36.30;81.40;;;;;;5034365;28;20056;-51
2023/06/19 13:09:05;;;;;;;5.55;2.50;;;36.30;79.40;;;;;;5034103;28;20062;-52
2023/06/19 13:11:31;;;;;;;4.75;2.30;;;36.30;80.20;;;;;;5034170;28;20034;-53
2023/06/19 13:13:57;;;;;;;3.13;2.58;;;36.30;81.30;;;;;;5034474;28;20040;-52
2023/06/19 13:16:25;;;;;;;4.72;3.05;;;35.50;77.70;;;;;;5034273;28;20034;-53
2023/06/19 13:18:51;;;;;;;4.90;2.45;;;35.40;80.70;;;;;;5034248;28;20037;-53
2023/06/19 13:21:17;;;;;;;5.18;2.70;;;35.80;81.20;;;;;;5034003;28;20035;-53
2023/06/19 13:23:43;;;;;;;2.88;2.35;;;35.90;78.30;;;;;;5033762;28;20112;-53
2023/06/19 13:26:09;;;;;;;4.20;2.60;;;36.20;79.70;;;;;;5034014;28;20049;-53